Time;durP1;ratioP1;P1;durP2;ratioP2;P2;SDS_P1;SDS_P2;PMS_P1;PMS_P2;Temp;Humidity;BMP_temperature;BMP_pressure;BME280_temperature;BME280_humidity;BME280_pressure;Samples;Min_cycle;Max_cycle;Signal;HPM_P1;HPM_P2
2022/07/10 00:03:27;;;;;;;6.75;4.40;;;;;;;;;;8398516;28;20420;-87
2022/07/10 00:07:30;;;;;;;13.77;4.80;;;;;;;;;;8397074;28;20040;-89
2022/07/10 00:11:33;;;;;;;9.15;4.80;;;;;;;;;;8397560;28;20040;-87
2022/07/10 00:15:36;;;;;;;7.15;3.63;;;;;;;;;;8395701;28;20373;-87
2022/07/10 00:19:43;;;;;;;8.95;4.40;;;;;;;;;;8399527;28;20056;-87
2022/07/10 00:23:48;;;;;;;8.68;4.57;;;;;;;;;;8399162;28;20049;-86
2022/07/10 00:27:51;;;;;;;6.97;4.30;;;;;;;;;;8398925;28;20408;-87
2022/07/10 00:31:54;;;;;;;8.18;4.57;;;;;;;;;;8397600;28;20051;-87
2022/07/10 00:36:01;;;;;;;6.95;4.25;;;;;;;;;;8397398;28;20051;-86
2022/07/10 00:40:06;;;;;;;7.97;4.88;;;;;;;;;;8398431;28;20052;-86
2022/07/10 00:44:09;;;;;;;10.63;4.80;;;;;;;;;;8397422;28;20060;-87
2022/07/10 00:48:11;;;;;;;12.07;4.95;;;;;;;;;;8397934;28;20041;-93
2022/07/10 00:52:17;;;;;;;10.32;5.07;;;;;;;;;;8397355;28;20071;-86
2022/07/10 00:56:26;;;;;;;12.48;5.10;;;;;;;;;;8391394;28;20041;-87
2022/07/10 01:00:29;;;;;;;6.85;4.72;;;;;;;;;;8394223;28;20052;-85
2022/07/10 01:04:33;;;;;;;7.25;5.07;;;;;;;;;;8392424;28;20048;-87
2022/07/10 01:08:37;;;;;;;7.07;4.55;;;;;;;;;;8397110;28;20446;-87
2022/07/10 01:12:40;;;;;;;6.75;4.38;;;;;;;;;;8397256;28;20041;-86
2022/07/10 01:16:46;;;;;;;9.23;4.82;;;;;;;;;;8395604;28;20419;-87
2022/07/10 01:20:55;;;;;;;8.10;4.47;;;;;;;;;;8399074;28;20113;-86
2022/07/10 01:25:02;;;;;;;6.43;4.22;;;;;;;;;;8397384;28;20052;-86
2022/07/10 01:29:10;;;;;;;6.57;4.88;;;;;;;;;;8394554;28;20064;-86
2022/07/10 01:33:13;;;;;;;8.38;4.88;;;;;;;;;;8396400;28;20049;-86
2022/07/10 01:37:17;;;;;;;7.60;4.40;;;;;;;;;;8397307;28;20045;-85
2022/07/10 01:41:22;;;;;;;8.55;4.50;;;;;;;;;;8394796;28;20079;-86
2022/07/10 01:45:29;;;;;;;6.80;3.95;;;;;;;;;;8394680;28;20052;-89
2022/07/10 01:49:34;;;;;;;6.72;4.15;;;;;;;;;;8396476;28;20139;-85
2022/07/10 01:53:44;;;;;;;9.43;4.93;;;;;;;;;;8393906;28;20044;-85
2022/07/10 01:57:48;;;;;;;5.97;4.05;;;;;;;;;;8392683;28;20056;-86
2022/07/10 02:01:51;;;;;;;9.00;3.95;;;;;;;;;;8395366;28;20052;-91
2022/07/10 02:05:52;;;;;;;8.73;4.75;;;;;;;;;;8390505;28;20052;-85
2022/07/10 02:09:59;;;;;;;6.72;4.47;;;;;;;;;;8395480;28;20454;-87
2022/07/10 02:14:02;;;;;;;7.53;4.78;;;;;;;;;;8383042;28;20067;-91
2022/07/10 02:18:08;;;;;;;7.78;4.40;;;;;;;;;;8375583;28;20164;-94
2022/07/10 02:22:12;;;;;;;8.23;4.07;;;;;;;;;;8391250;28;20067;-87
2022/07/10 02:26:16;;;;;;;7.88;5.00;;;;;;;;;;8392696;28;20484;-87
2022/07/10 02:30:19;;;;;;;9.25;4.60;;;;;;;;;;8392722;28;20203;-87
2022/07/10 02:34:23;;;;;;;8.02;5.13;;;;;;;;;;8371379;28;20052;-91
2022/07/10 02:38:28;;;;;;;12.55;5.53;;;;;;;;;;8384146;28;20053;-87
2022/07/10 02:42:33;;;;;;;9.45;5.57;;;;;;;;;;8384283;28;20080;-86
2022/07/10 02:46:35;;;;;;;7.18;4.43;;;;;;;;;;8391739;28;20366;-88
2022/07/10 02:54:58;;;;;;;8.45;5.18;;;;;;;;;;8370853;28;20053;-88
2022/07/10 02:59:07;;;;;;;6.70;4.70;;;;;;;;;;8385860;28;20454;-87
2022/07/10 03:03:09;;;;;;;9.63;4.88;;;;;;;;;;8403736;28;20056;-87
2022/07/10 03:07:13;;;;;;;10.07;5.00;;;;;;;;;;8392643;28;20048;-87
2022/07/10 03:11:17;;;;;;;10.60;5.05;;;;;;;;;;8394521;28;20394;-87
2022/07/10 03:15:22;;;;;;;8.43;5.03;;;;;;;;;;8388340;28;20131;-87
2022/07/10 03:19:24;;;;;;;10.35;4.85;;;;;;;;;;8397038;28;20048;-87
2022/07/10 03:23:27;;;;;;;7.78;5.13;;;;;;;;;;8395976;28;20123;-87
2022/07/10 03:27:32;;;;;;;6.22;4.47;;;;;;;;;;8393798;28;20064;-88
2022/07/10 03:31:37;;;;;;;8.77;5.10;;;;;;;;;;8408791;28;20526;-87
2022/07/10 03:35:42;;;;;;;10.82;5.95;;;;;;;;;;8392447;28;20047;-87
2022/07/10 03:39:45;;;;;;;10.75;5.50;;;;;;;;;;8386688;28;20072;-88
2022/07/10 03:43:51;;;;;;;11.85;7.07;;;;;;;;;;8393406;28;20044;-88
2022/07/10 03:47:57;;;;;;;10.07;5.25;;;;;;;;;;8392810;28;20060;-88
2022/07/10 03:52:03;;;;;;;12.10;10.55;;;;;;;;;;8394638;28;20070;-88
2022/07/10 03:57:53;;;;;;;11.25;8.18;;;;;;;;;;8392856;28;20052;-88
2022/07/10 04:00:59;;;;;;;11.38;7.05;;;;;;;;;;8397834;28;20075;-87
2022/07/10 04:05:09;;;;;;;10.88;7.43;;;;;;;;;;8399111;28;20045;-88
2022/07/10 04:09:12;;;;;;;9.38;6.28;;;;;;;;;;8398209;28;20110;-87
2022/07/10 04:13:18;;;;;;;14.27;6.07;;;;;;;;;;8383869;28;20400;-89
2022/07/10 04:17:20;;;;;;;9.70;5.72;;;;;;;;;;8399066;28;20494;-87
2022/07/10 04:21:28;;;;;;;11.77;6.25;;;;;;;;;;8397669;28;20049;-89
2022/07/10 04:25:30;;;;;;;9.05;5.65;;;;;;;;;;8391742;28;20052;-86
2022/07/10 04:29:33;;;;;;;12.52;6.47;;;;;;;;;;8397780;28;20041;-95
2022/07/10 04:33:36;;;;;;;12.90;6.95;;;;;;;;;;8398462;28;20044;-87
2022/07/10 04:37:43;;;;;;;12.05;6.32;;;;;;;;;;8397998;28;20478;-96
2022/07/10 04:41:45;;;;;;;12.52;6.30;;;;;;;;;;8397963;28;20044;-90
2022/07/10 04:45:48;;;;;;;10.82;6.00;;;;;;;;;;8399237;28;20044;-90
2022/07/10 04:49:51;;;;;;;14.05;5.75;;;;;;;;;;8397138;28;20118;-91
2022/07/10 04:53:58;;;;;;;8.50;4.65;;;;;;;;;;8398745;28;20086;-93
2022/07/10 04:58:03;;;;;;;8.65;4.97;;;;;;;;;;8396055;28;20140;-93
2022/07/10 05:02:09;;;;;;;8.38;4.75;;;;;;;;;;8397322;28;20088;-92
2022/07/10 05:06:11;;;;;;;7.95;4.82;;;;;;;;;;8397574;28;20052;-90
2022/07/10 05:10:16;;;;;;;9.82;5.93;;;;;;;;;;8399845;28;20067;-87
2022/07/10 05:14:19;;;;;;;8.57;5.10;;;;;;;;;;8398133;28;20048;-90
2022/07/10 05:18:22;;;;;;;9.55;5.47;;;;;;;;;;8397592;28;20048;-92
2022/07/10 05:22:25;;;;;;;7.57;5.53;;;;;;;;;;8392224;28;20040;-91
2022/07/10 05:26:30;;;;;;;14.48;6.07;;;;;;;;;;8397961;28;20044;-91
2022/07/10 05:30:35;;;;;;;9.13;5.47;;;;;;;;;;8397878;28;20484;-90
2022/07/10 05:34:38;;;;;;;8.88;4.60;;;;;;;;;;8395897;28;20491;-90
2022/07/10 05:38:40;;;;;;;8.32;4.45;;;;;;;;;;8396018;28;20040;-88
2022/07/10 05:42:45;;;;;;;8.73;4.40;;;;;;;;;;8397020;28;20060;-90
2022/07/10 05:46:47;;;;;;;10.80;4.47;;;;;;;;;;8396689;28;20116;-89
2022/07/10 05:50:50;;;;;;;6.50;4.38;;;;;;;;;;8395650;28;20051;-90
2022/07/10 05:54:53;;;;;;;9.00;4.75;;;;;;;;;;8393417;28;20102;-88
2022/07/10 05:58:58;;;;;;;11.20;5.00;;;;;;;;;;8389581;28;20064;-90
2022/07/10 06:03:00;;;;;;;6.50;4.28;;;;;;;;;;8395066;28;20511;-89
2022/07/10 06:07:04;;;;;;;8.95;4.65;;;;;;;;;;8393264;28;20044;-90
2022/07/10 06:11:07;;;;;;;9.25;4.28;;;;;;;;;;8390284;28;20048;-92
2022/07/10 06:15:12;;;;;;;7.10;4.15;;;;;;;;;;8389975;28;20114;-91
2022/07/10 06:19:19;;;;;;;6.97;3.95;;;;;;;;;;8383266;28;20064;-91
2022/07/10 06:23:27;;;;;;;6.32;4.00;;;;;;;;;;8392662;28;20499;-94
2022/07/10 06:27:31;;;;;;;8.52;4.20;;;;;;;;;;8396913;28;20037;-90
2022/07/10 06:31:44;;;;;;;8.40;4.20;;;;;;;;;;8394475;28;20044;-91
2022/07/10 06:35:48;;;;;;;7.05;3.83;;;;;;;;;;8387383;28;20090;-91
2022/07/10 06:39:55;;;;;;;7.68;4.45;;;;;;;;;;8386382;28;20400;-90
2022/07/10 06:44:02;;;;;;;6.68;4.07;;;;;;;;;;8387637;28;20040;-93
2022/07/10 06:48:13;;;;;;;6.90;4.22;;;;;;;;;;8391203;28;20057;-91
2022/07/10 06:52:17;;;;;;;8.23;4.70;;;;;;;;;;8394644;28;20048;-92
2022/07/10 06:56:22;;;;;;;9.15;4.22;;;;;;;;;;8388316;28;20183;-91
2022/07/10 07:00:29;;;;;;;6.88;4.38;;;;;;;;;;8382878;28;20099;-89
2022/07/10 07:04:36;;;;;;;10.55;4.47;;;;;;;;;;8386790;28;20040;-89
2022/07/10 07:08:41;;;;;;;8.55;4.93;;;;;;;;;;8393686;28;20044;-91
2022/07/10 07:12:45;;;;;;;10.38;5.38;;;;;;;;;;8393285;28;20412;-91
2022/07/10 07:16:58;;;;;;;11.98;6.43;;;;;;;;;;8396736;28;20101;-90
2022/07/10 07:25:38;;;;;;;12.80;6.82;;;;;;;;;;8318016;28;20117;-87
2022/07/10 07:29:42;;;;;;;10.02;5.43;;;;;;;;;;8393444;28;20548;-89
2022/07/10 07:33:46;;;;;;;11.60;6.45;;;;;;;;;;8396589;28;20163;-87
2022/07/10 07:37:58;;;;;;;10.50;6.28;;;;;;;;;;8397442;28;20507;-87
2022/07/10 07:42:02;;;;;;;11.18;5.05;;;;;;;;;;8399057;28;20109;-86
2022/07/10 07:46:05;;;;;;;12.10;5.80;;;;;;;;;;8400448;28;20044;-85
2022/07/10 07:50:09;;;;;;;10.95;5.82;;;;;;;;;;8400712;28;20478;-85
2022/07/10 07:54:15;;;;;;;10.63;5.28;;;;;;;;;;8402564;28;20094;-85
2022/07/10 07:58:18;;;;;;;9.02;5.20;;;;;;;;;;8402600;28;20449;-85
2022/07/10 08:02:22;;;;;;;9.40;5.22;;;;;;;;;;8401457;28;20511;-84
2022/07/10 08:06:26;;;;;;;7.35;3.80;;;;;;;;;;8401310;28;20040;-85
2022/07/10 08:10:34;;;;;;;5.85;3.30;;;;;;;;;;8401444;28;20127;-85
2022/07/10 08:14:40;;;;;;;8.60;3.38;;;;;;;;;;8401121;28;20040;-84
2022/07/10 08:18:44;;;;;;;7.32;2.95;;;;;;;;;;8401068;28;20051;-85
2022/07/10 08:22:51;;;;;;;5.55;2.90;;;;;;;;;;8400751;28;20040;-84
2022/07/10 08:26:56;;;;;;;6.25;2.70;;;;;;;;;;8401632;28;20491;-87
2022/07/10 08:31:01;;;;;;;5.97;2.90;;;;;;;;;;8400667;28;20075;-85
2022/07/10 08:35:06;;;;;;;8.77;2.80;;;;;;;;;;8400628;28;20040;-86
2022/07/10 08:39:10;;;;;;;4.72;2.42;;;;;;;;;;8399352;28;20048;-86
2022/07/10 08:43:16;;;;;;;5.38;2.58;;;;;;;;;;8400388;28;20047;-87
2022/07/10 08:47:25;;;;;;;4.15;2.35;;;;;;;;;;8400052;28;20045;-92
2022/07/10 08:51:38;;;;;;;5.40;2.47;;;;;;;;;;8399716;28;20095;-90
2022/07/10 08:55:42;;;;;;;6.97;2.63;;;;;;;;;;8391847;28;20048;-87
2022/07/10 08:59:48;;;;;;;5.75;2.45;;;;;;;;;;8385931;28;20076;-90
2022/07/10 09:03:53;;;;;;;6.60;2.40;;;;;;;;;;8383151;28;20062;-92
2022/07/10 09:08:18;;;;;;;6.85;2.10;;;;;;;;;;8388526;28;20566;-91
2022/07/10 09:17:56;;;;;;;5.43;2.23;;;;;;;;;;8394042;28;20114;-87
2022/07/10 09:22:19;;;;;;;6.00;2.40;;;;;;;;;;8388551;28;20305;-91
2022/07/10 09:31:15;;;;;;;;;;;;;;;;;;8403704;28;20041;-89
2022/07/10 09:39:53;;;;;;;6.50;2.17;;;;;;;;;;8395483;28;20051;-89
2022/07/10 09:44:02;;;;;;;5.03;1.80;;;;;;;;;;8403665;28;20463;-88
2022/07/10 09:48:50;;;;;;;5.20;2.15;;;;;;;;;;8390257;28;20122;-93
2022/07/10 09:53:21;;;;;;;4.78;1.75;;;;;;;;;;8380618;28;20049;-95
2022/07/10 09:58:02;;;;;;;4.43;1.50;;;;;;;;;;8371839;28;20048;-93
2022/07/10 10:12:24;;;;;;;6.57;1.88;;;;;;;;;;8247982;28;20058;-88
2022/07/10 10:21:16;;;;;;;6.18;1.63;;;;;;;;;;8258347;28;20054;-91
2022/07/10 10:25:22;;;;;;;6.25;1.90;;;;;;;;;;8237951;28;20441;-92
2022/07/10 10:29:55;;;;;;;6.20;1.63;;;;;;;;;;8254190;28;20069;-90
2022/07/10 10:34:00;;;;;;;6.38;1.40;;;;;;;;;;8261046;28;20058;-90
2022/07/10 10:43:01;;;;;;;7.20;1.98;;;;;;;;;;8309727;28;20099;-92
2022/07/10 10:47:10;;;;;;;4.53;1.40;;;;;;;;;;8395435;28;20082;-92
2022/07/10 10:51:14;;;;;;;3.85;1.20;;;;;;;;;;8401388;28;20074;-89
2022/07/10 10:55:20;;;;;;;5.53;1.92;;;;;;;;;;8401462;28;20127;-96
2022/07/10 10:59:47;;;;;;;5.13;1.45;;;;;;;;;;8388427;28;20071;-88
2022/07/10 11:05:00;;;;;;;4.00;1.13;;;;;;;;;;8364966;28;20072;-91
2022/07/10 11:24:50;;;;;;;7.35;1.38;;;;;;;;;;8392517;28;20051;-89
2022/07/10 11:29:42;;;;;;;7.53;1.48;;;;;;;;;;8389648;28;20071;-90
2022/07/10 11:34:16;;;;;;;4.55;1.17;;;;;;;;;;8382020;28;20068;-88
2022/07/10 11:38:46;;;;;;;5.22;1.30;;;;;;;;;;8387443;28;20776;-86
2022/07/10 11:42:57;;;;;;;3.58;1.08;;;;;;;;;;8387115;28;20049;-87
2022/07/10 11:47:11;;;;;;;7.53;1.40;;;;;;;;;;8378933;28;20135;-86
2022/07/10 11:51:45;;;;;;;3.40;1.50;;;;;;;;;;8385788;28;20127;-86
2022/07/10 11:56:18;;;;;;;6.47;1.80;;;;;;;;;;8388509;28;20792;-86
2022/07/10 12:01:21;;;;;;;3.22;1.25;;;;;;;;;;8362479;28;20059;-85
2022/07/10 12:25:32;;;;;;;3.72;1.25;;;;;;;;;;8385002;28;20064;-87
2022/07/10 12:30:10;;;;;;;2.65;1.50;;;;;;;;;;8393143;28;20051;-91
2022/07/10 12:35:14;;;;;;;4.47;1.30;;;;;;;;;;8393042;28;20054;-86
2022/07/10 12:45:35;;;;;;;5.35;1.00;;;;;;;;;;8394509;28;20048;-92
2022/07/10 12:55:52;;;;;;;2.20;1.20;;;;;;;;;;8394064;28;20114;-91
2022/07/10 13:05:33;;;;;;;3.42;1.30;;;;;;;;;;8410112;28;20621;-86
2022/07/10 13:15:22;;;;;;;1.35;0.77;;;;;;;;;;8390739;28;20063;-87
2022/07/10 13:19:50;;;;;;;3.75;1.20;;;;;;;;;;8383401;28;20049;-85
2022/07/10 13:28:46;;;;;;;;;;;;;;;;;;8391819;28;20078;-87
2022/07/10 13:33:58;;;;;;;2.88;1.13;;;;;;;;;;8395852;28;19920;-88
2022/07/10 13:38:59;;;;;;;3.15;1.40;;;;;;;;;;8399637;28;20558;-84
2022/07/10 13:48:49;;;;;;;7.00;2.40;;;;;;;;;;8399576;28;20105;-87
2022/07/10 13:53:43;;;;;;;5.85;1.13;;;;;;;;;;8396174;28;20125;-84
2022/07/10 14:03:42;;;;;;;3.30;1.40;;;;;;;;;;8394798;28;20361;-84
2022/07/10 14:13:01;;;;;;;1.75;1.20;;;;;;;;;;8329341;28;20387;-85
2022/07/10 14:17:32;;;;;;;3.50;1.00;;;;;;;;;;8307501;28;20081;-85
2022/07/10 14:22:36;;;;;;;1.40;0.90;;;;;;;;;;8327525;28;20057;-85
2022/07/10 14:36:09;;;;;;;1.87;0.97;;;;;;;;;;8309413;28;20050;-86
2022/07/10 14:45:11;;;;;;;8.05;1.63;;;;;;;;;;8326082;28;20058;-86
2022/07/10 14:49:38;;;;;;;3.17;1.35;;;;;;;;;;8333473;28;20056;-85
2022/07/10 14:54:17;;;;;;;4.82;2.20;;;;;;;;;;8324780;28;20456;-85
2022/07/10 14:58:37;;;;;;;5.38;1.83;;;;;;;;;;8334779;28;20068;-85
2022/07/10 15:03:14;;;;;;;6.38;1.77;;;;;;;;;;8336016;28;20053;-87
2022/07/10 15:07:31;;;;;;;9.82;1.50;;;;;;;;;;8330894;28;20511;-86
2022/07/10 15:11:44;;;;;;;3.05;0.70;;;;;;;;;;8323767;28;20045;-87
2022/07/10 15:16:09;;;;;;;1.52;1.00;;;;;;;;;;8329613;28;20156;-86
2022/07/10 15:20:52;;;;;;;2.92;1.35;;;;;;;;;;8321116;28;20422;-85
2022/07/10 15:25:17;;;;;;;1.58;1.00;;;;;;;;;;8310125;28;20072;-86
2022/07/10 15:29:57;;;;;;;1.15;1.10;;;;;;;;;;8273391;28;20075;-87
2022/07/10 15:34:22;;;;;;;1.35;1.20;;;;;;;;;;8323004;28;20049;-87
2022/07/10 15:38:36;;;;;;;4.05;1.40;;;;;;;;;;8321078;28;20057;-88
2022/07/10 15:43:07;;;;;;;8.30;2.47;;;;;;;;;;8383081;28;20102;-93
2022/07/10 15:47:47;;;;;;;9.30;3.10;;;;;;;;;;8384922;28;20036;-89
2022/07/10 15:52:18;;;;;;;6.35;2.72;;;;;;;;;;8394119;28;20500;-90
2022/07/10 15:56:28;;;;;;;9.18;2.28;;;;;;;;;;8389970;28;20075;-90
2022/07/10 16:00:55;;;;;;;8.18;2.65;;;;;;;;;;8396240;28;20141;-89
2022/07/10 16:05:18;;;;;;;10.32;4.78;;;;;;;;;;8394169;28;20044;-92
2022/07/10 16:09:25;;;;;;;8.95;4.45;;;;;;;;;;8396183;28;20048;-92
2022/07/10 16:13:49;;;;;;;4.50;2.05;;;;;;;;;;8397417;28;20074;-90
2022/07/10 16:18:15;;;;;;;13.38;3.83;;;;;;;;;;8369061;28;20040;-89
2022/07/10 16:22:54;;;;;;;5.78;2.10;;;;;;;;;;8392933;28;20128;-90
2022/07/10 16:32:36;;;;;;;7.20;3.17;;;;;;;;;;8394607;28;20332;-89
2022/07/10 16:36:53;;;;;;;11.27;3.38;;;;;;;;;;8391787;28;20052;-92
2022/07/10 16:50:30;;;;;;;9.70;3.20;;;;;;;;;;8399596;28;20044;-86
2022/07/10 16:54:51;;;;;;;5.22;2.08;;;;;;;;;;8399317;28;20127;-84
2022/07/10 16:59:03;;;;;;;10.75;5.45;;;;;;;;;;8397220;28;20053;-84
2022/07/10 17:03:24;;;;;;;10.05;4.63;;;;;;;;;;8379234;28;20051;-83
2022/07/10 17:07:29;;;;;;;10.70;4.13;;;;;;;;;;8406637;28;20044;-83
2022/07/10 17:11:36;;;;;;;12.18;5.07;;;;;;;;;;8401082;28;20049;-84
2022/07/10 17:15:40;;;;;;;13.77;5.15;;;;;;;;;;8407306;28;20044;-84
2022/07/10 17:19:44;;;;;;;22.67;6.93;;;;;;;;;;8406801;28;20052;-83
2022/07/10 17:23:55;;;;;;;20.10;6.30;;;;;;;;;;8407329;28;20063;-84
2022/07/10 17:28:12;;;;;;;9.18;4.57;;;;;;;;;;8408558;28;20053;-84
2022/07/10 17:32:18;;;;;;;7.05;3.45;;;;;;;;;;8405326;28;20135;-84
2022/07/10 17:36:22;;;;;;;8.38;3.22;;;;;;;;;;8395106;28;20059;-84
2022/07/10 17:40:25;;;;;;;6.00;2.40;;;;;;;;;;8400330;28;20048;-84
2022/07/10 17:44:29;;;;;;;4.60;2.20;;;;;;;;;;8395287;28;20060;-85
2022/07/10 17:48:34;;;;;;;3.25;1.88;;;;;;;;;;8395642;28;20128;-88
2022/07/10 17:52:40;;;;;;;5.63;2.60;;;;;;;;;;8394339;28;20064;-90
2022/07/10 17:56:44;;;;;;;4.53;2.78;;;;;;;;;;8393919;28;20050;-94
2022/07/10 18:00:48;;;;;;;4.65;2.28;;;;;;;;;;8383880;28;20061;-88
2022/07/10 18:04:54;;;;;;;8.98;2.75;;;;;;;;;;8393733;28;20068;-88
2022/07/10 18:08:58;;;;;;;7.68;3.53;;;;;;;;;;8390647;28;20044;-90
2022/07/10 18:13:03;;;;;;;9.82;4.00;;;;;;;;;;8395748;28;20048;-88
2022/07/10 18:17:07;;;;;;;7.65;3.50;;;;;;;;;;8392160;28;20076;-89
2022/07/10 18:21:16;;;;;;;13.10;4.05;;;;;;;;;;8397078;28;20048;-95
2022/07/10 18:25:27;;;;;;;8.52;3.85;;;;;;;;;;8399735;28;20101;-93
2022/07/10 18:29:35;;;;;;;11.77;4.35;;;;;;;;;;8401230;28;20044;-88
2022/07/10 18:38:19;;;;;;;14.18;4.07;;;;;;;;;;8397317;28;20041;-89
2022/07/10 18:42:39;;;;;;;8.80;3.30;;;;;;;;;;8392262;28;20043;-90
2022/07/10 18:46:44;;;;;;;6.00;2.97;;;;;;;;;;8393694;28;20052;-92
2022/07/10 18:50:54;;;;;;;11.43;3.60;;;;;;;;;;8399876;22;20578;-88
2022/07/10 18:55:23;;;;;;;8.18;3.42;;;;;;;;;;8392564;28;20644;-90
2022/07/10 18:59:51;;;;;;;11.75;4.15;;;;;;;;;;8388783;28;20033;-89
2022/07/10 19:04:36;;;;;;;13.50;4.13;;;;;;;;;;8394141;28;20090;-89
2022/07/10 19:09:00;;;;;;;10.65;4.30;;;;;;;;;;8394665;28;20052;-90
2022/07/10 19:13:08;;;;;;;12.00;4.55;;;;;;;;;;8396456;28;20063;-88
2022/07/10 19:22:01;;;;;;;10.30;4.25;;;;;;;;;;8392198;28;20427;-88
2022/07/10 19:26:07;;;;;;;11.27;4.03;;;;;;;;;;8402705;28;20044;-90
2022/07/10 19:30:14;;;;;;;4.80;2.83;;;;;;;;;;8403156;28;20045;-94
2022/07/10 19:34:23;;;;;;;5.25;2.83;;;;;;;;;;8402958;28;20149;-88
2022/07/10 19:38:50;;;;;;;6.03;2.70;;;;;;;;;;8394748;28;20041;-88
2022/07/10 19:43:08;;;;;;;5.35;2.60;;;;;;;;;;8402614;28;20045;-91
2022/07/10 19:47:41;;;;;;;4.25;2.70;;;;;;;;;;8401248;28;20044;-93
2022/07/10 19:51:53;;;;;;;;;;;;;;;;;;8398073;28;20040;-88
2022/07/10 19:56:00;;;;;;;4.10;2.88;;;;;;;;;;8401360;28;20023;-90
2022/07/10 20:00:05;;;;;;;6.15;3.15;;;;;;;;;;8401729;28;20056;-88
2022/07/10 20:04:14;;;;;;;5.25;2.50;;;;;;;;;;8385819;28;20091;-88
2022/07/10 20:08:28;;;;;;;5.45;2.53;;;;;;;;;;8392834;28;20040;-88
2022/07/10 20:12:58;;;;;;;6.13;2.80;;;;;;;;;;8385914;28;20407;-94
2022/07/10 20:17:11;;;;;;;4.80;2.80;;;;;;;;;;8392484;28;20102;-88
2022/07/10 20:21:21;;;;;;;5.47;2.97;;;;;;;;;;8386508;28;20103;-88
2022/07/10 20:25:25;;;;;;;4.97;2.70;;;;;;;;;;8387457;28;20044;-92
2022/07/10 20:29:28;;;;;;;4.65;2.78;;;;;;;;;;8385892;28;20069;-94
2022/07/10 20:33:32;;;;;;;4.75;2.53;;;;;;;;;;8396096;28;20045;-87
2022/07/10 20:37:43;;;;;;;4.68;2.88;;;;;;;;;;8400565;28;20086;-87
2022/07/10 20:41:47;;;;;;;4.65;2.80;;;;;;;;;;8400077;28;20048;-86
2022/07/10 20:45:50;;;;;;;5.38;2.80;;;;;;;;;;8400762;28;20098;-86
2022/07/10 20:49:55;;;;;;;5.28;2.92;;;;;;;;;;8400496;28;20564;-90
2022/07/10 20:54:00;;;;;;;4.70;3.03;;;;;;;;;;8400683;28;20091;-95
2022/07/10 20:58:03;;;;;;;6.07;3.58;;;;;;;;;;8400537;28;20048;-86
2022/07/10 21:02:06;;;;;;;4.75;3.33;;;;;;;;;;8400472;28;20068;-85
2022/07/10 21:06:10;;;;;;;5.25;3.28;;;;;;;;;;8400332;28;20045;-87
2022/07/10 21:10:40;;;;;;;5.43;2.67;;;;;;;;;;8404924;28;20055;-85
2022/07/10 21:14:40;;;;;;;6.95;2.95;;;;;;;;;;8438408;28;20076;-86
2022/07/10 21:18:43;;;;;;;3.75;2.60;;;;;;;;;;8438524;28;20028;-86
2022/07/10 21:22:46;;;;;;;4.95;3.25;;;;;;;;;;8438236;28;20036;-88
2022/07/10 21:26:51;;;;;;;5.13;2.90;;;;;;;;;;8409234;28;20029;-85
2022/07/10 21:30:54;;;;;;;5.72;2.70;;;;;;;;;;8419094;28;20028;-85
2022/07/10 21:34:58;;;;;;;5.10;2.78;;;;;;;;;;8423152;28;20049;-85
2022/07/10 21:39:02;;;;;;;6.80;2.75;;;;;;;;;;8422714;28;20412;-92
2022/07/10 21:43:07;;;;;;;4.50;2.60;;;;;;;;;;8400205;28;20072;-84
2022/07/10 21:47:21;;;;;;;5.80;2.70;;;;;;;;;;8397876;28;20531;-91
2022/07/10 21:51:29;;;;;;;3.85;2.58;;;;;;;;;;8398727;28;20067;-93
2022/07/10 21:55:32;;;;;;;5.15;2.70;;;;;;;;;;8398154;28;20048;-85
2022/07/10 21:59:36;;;;;;;5.72;2.83;;;;;;;;;;8398157;28;20052;-84
2022/07/10 22:03:40;;;;;;;4.15;2.55;;;;;;;;;;8398094;28;20048;-84
2022/07/10 22:07:44;;;;;;;7.50;2.55;;;;;;;;;;8397831;28;20051;-85
2022/07/10 22:11:50;;;;;;;4.60;2.70;;;;;;;;;;8397812;28;20106;-85
2022/07/10 22:15:54;;;;;;;4.70;2.38;;;;;;;;;;8397301;28;20373;-84
2022/07/10 22:19:57;;;;;;;4.45;2.85;;;;;;;;;;8397278;28;20048;-85
2022/07/10 22:23:59;;;;;;;7.78;2.97;;;;;;;;;;8397280;28;20067;-90
2022/07/10 22:28:02;;;;;;;6.72;2.65;;;;;;;;;;8397126;28;20044;-86
2022/07/10 22:32:07;;;;;;;4.00;2.67;;;;;;;;;;8397095;28;20044;-85
2022/07/10 22:36:11;;;;;;;4.47;2.63;;;;;;;;;;8397003;28;20571;-88
2022/07/10 22:40:14;;;;;;;10.90;3.10;;;;;;;;;;8396847;28;20044;-85
2022/07/10 22:44:17;;;;;;;8.73;2.78;;;;;;;;;;8396930;28;20044;-84
2022/07/10 22:48:21;;;;;;;5.32;2.70;;;;;;;;;;8396418;28;20109;-85
2022/07/10 22:52:24;;;;;;;3.63;2.70;;;;;;;;;;8396615;28;20040;-84
2022/07/10 22:56:27;;;;;;;4.45;2.65;;;;;;;;;;8397036;28;20481;-84
2022/07/10 23:00:29;;;;;;;3.85;2.58;;;;;;;;;;8395419;28;20067;-85
2022/07/10 23:04:33;;;;;;;5.22;3.30;;;;;;;;;;8396369;28;20050;-85
2022/07/10 23:08:36;;;;;;;5.53;2.53;;;;;;;;;;8396368;28;20133;-85
2022/07/10 23:12:39;;;;;;;4.55;2.70;;;;;;;;;;8396355;28;20037;-85
2022/07/10 23:16:42;;;;;;;4.60;2.95;;;;;;;;;;8396308;28;20115;-92
2022/07/10 23:20:46;;;;;;;4.55;2.90;;;;;;;;;;8396025;28;20055;-88
2022/07/10 23:24:53;;;;;;;4.85;3.00;;;;;;;;;;8395934;28;20044;-86
2022/07/10 23:28:56;;;;;;;7.00;3.10;;;;;;;;;;8395901;28;20123;-85
2022/07/10 23:32:58;;;;;;;4.63;2.80;;;;;;;;;;8396330;28;20417;-85
2022/07/10 23:37:02;;;;;;;7.43;3.40;;;;;;;;;;8395858;28;20114;-86
2022/07/10 23:41:05;;;;;;;4.65;3.00;;;;;;;;;;8395693;28;20720;-85
2022/07/10 23:45:08;;;;;;;6.45;3.50;;;;;;;;;;8395726;28;20098;-85
2022/07/10 23:53:32;;;;;;;6.70;3.20;;;;;;;;;;8395652;28;20381;-91
2022/07/10 23:57:35;;;;;;;7.55;3.50;;;;;;;;;;8395484;28;20045;-85
